Time;durP1;ratioP1;P1;durP2;ratioP2;P2;SDS_P1;SDS_P2;PMS_P1;PMS_P2;Temp;Humidity;BMP_temperature;BMP_pressure;BME280_temperature;BME280_humidity;BME280_pressure;Samples;Min_cycle;Max_cycle;Signal;HPM_P1;HPM_P2
2021/12/19 00:00:10;;;;;;;15.23;6.13;;;;;;;7.69;87.03;101791.25;5005566;28;20385;-77
2021/12/19 00:10:42;;;;;;;16.25;5.63;;;;;;;7.75;86.69;101787.91;5010832;28;20160;-77
2021/12/19 00:13:09;;;;;;;12.10;5.13;;;;;;;7.78;86.64;101790.63;5003405;28;20129;-77
2021/12/19 00:15:34;;;;;;;10.75;5.60;;;;;;;7.72;86.89;101786.94;4972186;28;20552;-77
2021/12/19 00:17:59;;;;;;;13.85;4.93;;;;;;;7.74;86.58;101778.25;4999515;28;20826;-76
2021/12/19 00:20:24;;;;;;;13.48;5.53;;;;;;;7.75;86.65;101785.25;5003776;28;20440;-77
2021/12/19 00:22:50;;;;;;;11.90;5.50;;;;;;;7.73;86.35;101781.75;5007043;28;20484;-77
2021/12/19 00:25:15;;;;;;;11.93;4.93;;;;;;;7.73;85.95;101784.38;5003335;28;20202;-77
2021/12/19 00:27:40;;;;;;;16.50;6.05;;;;;;;7.76;85.68;101771.28;5006383;28;20124;-77
2021/12/19 00:30:06;;;;;;;13.93;5.80;;;;;;;7.75;85.69;101771.25;5004422;28;20078;-77
2021/12/19 00:32:32;;;;;;;12.73;5.35;;;;;;;7.81;85.03;101772.31;5005893;28;20046;-77
2021/12/19 00:34:57;;;;;;;13.75;5.32;;;;;;;7.74;85.54;101769.47;5004795;28;20045;-77
2021/12/19 00:37:23;;;;;;;14.55;5.65;;;;;;;7.73;85.83;101765.97;5012124;28;20038;-77
2021/12/19 00:39:48;;;;;;;16.50;6.57;;;;;;;7.73;85.66;101773.84;5013743;28;20132;-77
2021/12/19 00:42:26;;;;;;;12.68;5.68;;;;;;;7.75;85.67;101777.38;5004302;28;20035;-77
2021/12/19 00:44:53;;;;;;;11.98;5.70;;;;;;;7.79;85.22;101757.34;4987094;28;20765;-77
2021/12/19 00:47:18;;;;;;;12.52;5.35;;;;;;;7.75;85.50;101756.34;5005139;28;20050;-77
2021/12/19 00:49:43;;;;;;;11.95;5.35;;;;;;;7.76;85.00;101755.53;5005695;28;20088;-77
2021/12/19 00:52:09;;;;;;;12.98;6.65;;;;;;;7.78;84.60;101766.97;5004105;28;20042;-77
2021/12/19 00:54:34;;;;;;;15.88;6.05;;;;;;;7.72;85.33;101761.53;5012057;28;20041;-77
2021/12/19 00:56:59;;;;;;;9.90;5.70;;;;;;;7.72;84.97;101745.78;5006889;28;20039;-77
2021/12/19 00:59:25;;;;;;;15.40;6.13;;;;;;;7.74;84.29;101775.63;5007016;28;20045;-77
2021/12/19 01:01:50;;;;;;;9.90;5.28;;;;;;;7.79;84.41;101742.47;5010745;28;20026;-77
2021/12/19 01:04:17;;;;;;;10.60;5.30;;;;;;;7.79;84.06;101746.84;5016036;28;20038;-77
2021/12/19 01:06:44;;;;;;;9.93;5.00;;;;;;;7.80;83.66;101732.81;5014102;28;20393;-77
2021/12/19 01:09:10;;;;;;;14.27;5.50;;;;;;;7.80;84.38;101743.34;5010326;28;20066;-77
2021/12/19 01:11:36;;;;;;;12.70;5.18;;;;;;;7.68;83.87;101754.44;5005457;28;20124;-77
2021/12/19 01:14:02;;;;;;;14.45;4.85;;;;;;;7.76;83.46;101734.50;5004154;28;20407;-77
2021/12/19 01:16:28;;;;;;;15.23;5.32;;;;;;;7.70;84.31;101739.59;5010034;28;20041;-77
2021/12/19 01:18:54;;;;;;;16.27;5.43;;;;;;;7.74;84.01;101736.19;5003040;28;20033;-77
2021/12/19 01:21:19;;;;;;;10.77;5.35;;;;;;;7.81;83.58;101753.91;5003618;28;20038;-76
2021/12/19 01:23:45;;;;;;;11.98;5.13;;;;;;;7.75;83.45;101739.72;5003396;28;20040;-76
2021/12/19 01:26:10;;;;;;;11.35;5.60;;;;;;;7.78;83.38;101730.19;5002630;28;20069;-77
2021/12/19 01:28:36;;;;;;;11.32;5.22;;;;;;;7.79;83.30;101731.06;5005480;28;20081;-76
2021/12/19 01:31:02;;;;;;;15.43;6.05;;;;;;;7.77;83.21;101720.50;5002148;28;20121;-77
2021/12/19 01:33:27;;;;;;;14.45;4.97;;;;;;;7.76;83.66;101725.75;5007911;28;20040;-76
2021/12/19 01:35:52;;;;;;;9.82;5.65;;;;;;;7.68;83.50;101717.66;5002344;28;20038;-77
2021/12/19 01:38:18;;;;;;;14.00;6.03;;;;;;;7.74;83.60;101706.41;5004611;28;20128;-77
2021/12/19 01:40:43;;;;;;;13.70;5.75;;;;;;;7.67;83.45;101702.72;5003094;28;20041;-77
2021/12/19 01:43:08;;;;;;;14.70;5.68;;;;;;;7.63;83.23;101706.16;5011471;28;20030;-76
2021/12/19 01:45:39;;;;;;;9.23;5.07;;;;;;;7.64;82.59;101679.00;5005100;28;20038;-76
2021/12/19 01:48:10;;;;;;;13.50;5.13;;;;;;;7.66;82.64;101693.09;5003560;28;20042;-77
2021/12/19 01:50:36;;;;;;;13.70;5.05;;;;;;;7.64;82.57;101690.41;5004058;28;20401;-76
2021/12/19 01:53:04;;;;;;;9.75;5.03;;;;;;;7.74;82.51;101688.91;5003236;28;20044;-77
2021/12/19 01:55:30;;;;;;;12.95;6.13;;;;;;;7.70;82.27;101702.81;5003289;28;20030;-77
2021/12/19 01:57:56;;;;;;;13.90;6.07;;;;;;;7.65;82.87;101686.03;5003602;28;20041;-77
2021/12/19 02:00:27;;;;;;;11.50;5.68;;;;;;;7.64;82.68;101684.28;5003010;28;20042;-77
2021/12/19 02:02:54;;;;;;;13.10;6.40;;;;;;;7.70;82.97;101689.66;5002111;28;20026;-77
2021/12/19 02:05:20;;;;;;;14.88;6.32;;;;;;;7.58;83.28;101682.38;5002719;28;20034;-77
2021/12/19 02:07:48;;;;;;;11.23;5.38;;;;;;;7.60;82.80;101688.56;5003698;28;20126;-77
2021/12/19 02:10:17;;;;;;;15.57;4.95;;;;;;;7.58;82.20;101681.50;5003463;28;20046;-77
2021/12/19 02:12:42;;;;;;;11.43;4.50;;;;;;;7.54;82.14;101682.25;5003708;28;20030;-77
2021/12/19 02:15:08;;;;;;;7.95;4.15;;;;;;;7.55;81.50;101669.19;5000982;28;20045;-76
2021/12/19 02:17:33;;;;;;;9.40;3.67;;;;;;;7.55;81.55;101684.94;5004036;28;20249;-76
2021/12/19 02:19:59;;;;;;;10.38;3.65;;;;;;;7.55;81.89;101673.56;5001222;28;20088;-76
2021/12/19 02:22:24;;;;;;;10.30;3.80;;;;;;;7.52;81.76;101676.06;5004582;28;20029;-76
2021/12/19 02:24:49;;;;;;;10.55;3.85;;;;;;;7.57;81.66;101677.06;5000775;28;20097;-76
2021/12/19 02:27:15;;;;;;;9.63;4.07;;;;;;;7.43;81.19;101677.63;5004016;28;20036;-76
2021/12/19 02:29:40;;;;;;;12.43;4.00;;;;;;;7.44;81.17;101668.91;5001739;28;20034;-75
2021/12/19 02:32:06;;;;;;;9.45;3.40;;;;;;;7.42;81.71;101656.59;5003100;28;20106;-76
2021/12/19 02:34:38;;;;;;;10.23;3.50;;;;;;;7.38;81.35;101645.09;4984446;28;20038;-76
2021/12/19 02:37:12;;;;;;;9.85;4.10;;;;;;;7.36;81.74;101659.06;5003213;28;20066;-76
2021/12/19 02:40:06;;;;;;;9.10;3.83;;;;;;;7.42;81.48;101638.22;5000958;28;20125;-76
2021/12/19 02:50:34;;;;;;;11.27;4.28;;;;;;;7.35;80.82;101624.03;5000520;28;20061;-76
2021/12/19 02:53:00;;;;;;;10.40;3.92;;;;;;;7.39;80.80;101625.00;4999410;28;20064;-76
2021/12/19 02:55:25;;;;;;;11.50;4.88;;;;;;;7.40;81.00;101596.13;5003240;28;20060;-75
2021/12/19 02:57:51;;;;;;;9.30;4.00;;;;;;;7.42;80.94;101599.69;5001094;28;20038;-75
2021/12/19 03:00:22;;;;;;;13.70;4.88;;;;;;;7.42;81.36;101594.44;5002831;28;20038;-76
2021/12/19 03:02:48;;;;;;;12.77;4.40;;;;;;;7.44;81.72;101598.00;5001114;28;20030;-76
2021/12/19 03:05:14;;;;;;;10.25;5.10;;;;;;;7.46;81.60;101585.75;5002518;28;20297;-76
2021/12/19 03:07:42;;;;;;;12.63;6.25;;;;;;;7.37;81.70;101582.94;5001497;28;20037;-76
2021/12/19 03:18:03;;;;;;;12.18;8.27;;;;;;;7.42;82.25;101552.41;5003258;28;20098;-75
2021/12/19 03:20:31;;;;;;;16.13;8.75;;;;;;;7.42;81.72;101557.66;5001467;28;20425;-75
2021/12/19 03:23:00;;;;;;;14.27;8.50;;;;;;;7.42;82.52;101565.56;5013870;28;20503;-75
2021/12/19 03:25:27;;;;;;;18.02;10.27;;;;;;;7.39;82.34;101557.59;5001026;28;20034;-76
2021/12/19 03:27:53;;;;;;;12.05;8.15;;;;;;;7.33;82.34;101552.19;5001867;28;20057;-76
2021/12/19 03:30:19;;;;;;;16.10;9.18;;;;;;;7.43;82.49;101542.78;5005520;28;20034;-76
2021/12/19 03:32:44;;;;;;;12.25;8.45;;;;;;;7.32;82.24;101534.66;5001249;28;20125;-76
2021/12/19 03:35:10;;;;;;;15.80;8.43;;;;;;;7.34;82.03;101548.72;5002065;28;20044;-76
2021/12/19 03:37:36;;;;;;;13.45;8.10;;;;;;;7.26;82.00;101545.03;4979863;28;20035;-76
2021/12/19 03:40:11;;;;;;;12.88;7.88;;;;;;;7.26;81.78;101537.16;5000155;28;20515;-75
2021/12/19 03:42:40;;;;;;;9.23;6.10;;;;;;;7.27;81.70;101544.19;4984847;28;20069;-75
2021/12/19 03:45:08;;;;;;;10.38;7.47;;;;;;;7.23;81.32;101539.69;5000931;28;20441;-76
2021/12/19 03:47:34;;;;;;;9.30;6.40;;;;;;;7.21;81.35;101546.66;4999155;28;20070;-76
2021/12/19 03:50:00;;;;;;;8.93;6.07;;;;;;;7.15;80.73;101542.16;5002270;28;20044;-75
2021/12/19 03:52:26;;;;;;;10.95;6.10;;;;;;;7.18;80.50;101567.59;5000455;28;20034;-76
2021/12/19 03:54:51;;;;;;;8.27;5.53;;;;;;;7.20;80.44;101550.13;5001758;28;20054;-77
2021/12/19 03:57:16;;;;;;;9.95;5.65;;;;;;;7.20;80.03;101555.38;4998408;28;20034;-76
2021/12/19 03:59:47;;;;;;;12.35;5.95;;;;;;;7.18;80.64;101547.47;4999774;28;20026;-75
2021/12/19 04:02:12;;;;;;;9.70;6.22;;;;;;;7.10;81.67;101533.28;4999668;28;20046;-75
2021/12/19 04:04:39;;;;;;;11.55;7.18;;;;;;;7.09;81.85;101544.63;5002844;28;20038;-76
2021/12/19 04:07:05;;;;;;;11.13;7.25;;;;;;;7.10;81.61;101525.41;4999863;28;20042;-76
2021/12/19 04:09:30;;;;;;;11.38;8.15;;;;;;;7.13;81.78;101524.59;5001435;28;20067;-76
2021/12/19 04:11:56;;;;;;;13.15;9.00;;;;;;;7.07;82.48;101514.81;5000277;28;20515;-76
2021/12/19 04:14:23;;;;;;;14.40;9.85;;;;;;;7.09;82.50;101502.63;5008740;28;20042;-76
2021/12/19 04:16:48;;;;;;;15.75;10.02;;;;;;;7.12;82.68;101507.06;5003422;28;20393;-76
2021/12/19 04:19:13;;;;;;;17.70;11.73;;;;;;;7.07;82.77;101508.69;5000028;28;20092;-76
2021/12/19 04:21:39;;;;;;;15.07;11.18;;;;;;;7.09;82.07;101517.50;5003173;28;20126;-76
2021/12/19 04:24:04;;;;;;;14.55;11.75;;;;;;;7.11;82.25;101539.41;5002068;28;20088;-76
2021/12/19 04:26:30;;;;;;;15.57;11.13;;;;;;;7.13;81.85;101499.22;4999900;28;20070;-76
2021/12/19 04:28:56;;;;;;;16.00;10.93;;;;;;;7.01;82.18;101518.19;5002838;28;20149;-76
2021/12/19 04:31:22;;;;;;;14.75;11.07;;;;;;;7.06;81.42;101509.56;4999275;28;20042;-76
2021/12/19 04:33:47;;;;;;;14.90;11.77;;;;;;;7.07;81.73;101511.31;4999325;28;20042;-76
2021/12/19 04:36:21;;;;;;;16.20;12.57;;;;;;;7.03;81.54;101505.13;5002336;28;20044;-76
2021/12/19 04:39:21;;;;;;;14.95;11.35;;;;;;;7.04;81.48;101499.00;5000519;28;20563;-76
2021/12/19 04:42:48;;;;;;;15.18;12.32;;;;;;;7.09;81.34;101510.50;5002907;28;20022;-76
2021/12/19 04:50:57;;;;;;;15.70;11.18;;;;;;;7.01;81.43;101484.06;5005297;28;20049;-76
2021/12/19 04:53:47;;;;;;;16.85;11.13;;;;;;;7.01;82.22;101510.31;5006639;28;20092;-76
2021/12/19 04:56:18;;;;;;;14.48;11.32;;;;;;;7.07;82.04;101500.81;5004815;28;20049;-76
2021/12/19 04:58:56;;;;;;;15.40;11.05;;;;;;;7.08;81.69;101519.25;5005112;28;20042;-76
2021/12/19 05:01:39;;;;;;;16.00;10.93;;;;;;;6.95;81.75;101517.16;5004594;28;20045;-76
2021/12/19 05:04:14;;;;;;;14.98;10.55;;;;;;;7.06;81.90;101523.56;5003187;28;20648;-76
2021/12/19 05:14:37;;;;;;;15.73;10.13;;;;;;;7.08;81.15;101489.47;5003903;28;20077;-76
2021/12/19 05:17:07;;;;;;;14.15;9.77;;;;;;;6.99;81.75;101496.25;5004048;28;20033;-76
2021/12/19 05:19:50;;;;;;;12.65;9.45;;;;;;;7.07;81.50;101485.94;5004462;28;20404;-76
2021/12/19 05:22:17;;;;;;;12.80;8.73;;;;;;;7.11;81.27;101498.31;5002327;28;20038;-76
2021/12/19 05:24:48;;;;;;;13.20;9.57;;;;;;;7.08;81.44;101507.84;5005336;28;20133;-76
2021/12/19 05:27:13;;;;;;;15.02;10.15;;;;;;;6.97;81.42;101518.09;5002343;28;20034;-76
2021/12/19 05:29:39;;;;;;;15.55;11.07;;;;;;;7.15;81.09;101515.91;5005656;28;20041;-76
2021/12/19 05:32:06;;;;;;;15.10;12.10;;;;;;;7.11;80.83;101523.66;5001914;28;20761;-76
2021/12/19 05:34:31;;;;;;;18.33;11.40;;;;;;;7.07;81.04;101529.69;5014548;28;20038;-75
2021/12/19 05:45:12;;;;;;;13.82;11.35;;;;;;;7.01;81.33;101544.44;5006638;28;20073;-76
2021/12/19 05:47:39;;;;;;;15.73;12.00;;;;;;;7.00;81.74;101547.91;5003922;28;20455;-77
2021/12/19 05:50:05;;;;;;;13.13;11.20;;;;;;;7.03;81.21;101539.22;5001706;28;20497;-76
2021/12/19 05:52:31;;;;;;;16.30;12.65;;;;;;;6.98;81.61;101533.88;5004089;28;20042;-76
2021/12/19 05:54:56;;;;;;;17.02;12.07;;;;;;;6.97;82.14;101512.84;4998927;28;20033;-76
2021/12/19 05:57:22;;;;;;;15.85;10.63;;;;;;;6.93;81.54;101529.34;5010255;28;20033;-76
2021/12/19 05:59:48;;;;;;;13.75;10.15;;;;;;;6.96;81.12;101511.06;5001419;28;20180;-76
2021/12/19 06:02:13;;;;;;;14.30;10.98;;;;;;;7.02;81.05;101513.81;5001368;28;20404;-76
2021/12/19 06:04:38;;;;;;;11.82;9.48;;;;;;;7.05;80.34;101513.91;5004169;28;20048;-76
2021/12/19 06:07:04;;;;;;;14.98;10.05;;;;;;;7.06;80.80;101517.41;5002204;28;20125;-76
2021/12/19 06:09:29;;;;;;;13.13;10.10;;;;;;;7.01;80.89;101533.94;5003717;28;20433;-76
2021/12/19 06:11:54;;;;;;;14.23;10.18;;;;;;;6.97;80.63;101518.97;5002754;28;20404;-76
2021/12/19 06:14:20;;;;;;;13.57;9.82;;;;;;;6.91;81.54;101503.06;5002629;28;20450;-76
2021/12/19 06:16:45;;;;;;;13.77;10.15;;;;;;;6.93;81.46;101504.00;5003554;28;20451;-76
2021/12/19 06:19:11;;;;;;;12.55;9.48;;;;;;;6.90;81.71;101506.56;5002080;28;20552;-76
2021/12/19 06:21:36;;;;;;;13.23;9.02;;;;;;;6.90;81.54;101506.56;5009965;28;20030;-76
2021/12/19 06:24:01;;;;;;;13.68;9.90;;;;;;;6.87;81.30;101503.84;5010943;28;20040;-76
2021/12/19 06:26:27;;;;;;;12.70;8.73;;;;;;;6.88;82.14;101499.50;5005903;28;20038;-76
2021/12/19 06:28:52;;;;;;;12.35;8.07;;;;;;;6.95;81.40;101502.31;5004086;28;20392;-77
2021/12/19 06:31:17;;;;;;;12.88;8.48;;;;;;;6.93;81.86;101480.38;5001612;28;20417;-75
2021/12/19 06:33:43;;;;;;;10.88;7.88;;;;;;;6.91;81.61;101489.94;5011995;28;20497;-76
2021/12/19 06:36:09;;;;;;;11.23;8.10;;;;;;;6.91;82.01;101484.69;5005742;28;20052;-76
2021/12/19 06:38:35;;;;;;;12.07;8.30;;;;;;;6.88;81.96;101474.13;5002659;28;20042;-76
2021/12/19 06:41:00;;;;;;;11.23;7.47;;;;;;;6.92;82.09;101491.75;5002796;28;20048;-76
2021/12/19 06:43:26;;;;;;;8.88;7.05;;;;;;;6.92;82.45;101480.34;5001995;28;20030;-76
2021/12/19 06:45:53;;;;;;;11.00;6.97;;;;;;;6.91;82.14;101479.44;4985534;28;20081;-76
2021/12/19 06:48:22;;;;;;;16.20;8.00;;;;;;;6.89;82.43;101478.53;4980680;28;20053;-76
2021/12/19 06:50:47;;;;;;;10.57;6.95;;;;;;;6.86;83.12;101481.06;5001431;28;20128;-76
2021/12/19 06:53:13;;;;;;;13.70;7.22;;;;;;;6.78;83.20;101480.88;5009615;28;20512;-76
2021/12/19 06:55:38;;;;;;;12.35;6.97;;;;;;;6.69;84.65;101472.81;5008229;28;20035;-77
2021/12/19 06:58:03;;;;;;;14.68;7.18;;;;;;;6.76;83.48;101495.72;5004564;28;20084;-77
2021/12/19 07:00:29;;;;;;;11.88;7.22;;;;;;;6.76;84.50;101474.72;5003387;28;20033;-76
2021/12/19 07:02:55;;;;;;;10.73;6.57;;;;;;;6.71;84.83;101475.47;5004116;28;20026;-77
2021/12/19 07:05:21;;;;;;;10.43;6.47;;;;;;;6.68;85.23;101465.78;5000256;28;20038;-77
2021/12/19 07:07:46;;;;;;;10.45;6.47;;;;;;;6.67;85.45;101464.00;5002810;28;20096;-77
2021/12/19 07:10:11;;;;;;;9.35;6.75;;;;;;;6.69;85.62;101453.56;5002328;28;20041;-77
2021/12/19 07:12:37;;;;;;;10.65;6.43;;;;;;;6.72;85.39;101458.88;5001863;28;20042;-76
2021/12/19 07:15:03;;;;;;;11.73;6.07;;;;;;;6.71;85.66;101463.25;5000257;28;20042;-76
2021/12/19 07:17:29;;;;;;;14.27;6.72;;;;;;;6.67;85.65;101460.50;5003354;28;20480;-77
2021/12/19 07:19:54;;;;;;;12.52;6.47;;;;;;;6.64;86.02;101447.31;5003773;28;20040;-77
2021/12/19 07:22:19;;;;;;;10.77;6.88;;;;;;;6.62;86.18;101438.50;5000630;28;20374;-76
2021/12/19 07:24:45;;;;;;;13.40;6.35;;;;;;;6.63;86.02;101435.94;5005283;28;20547;-77
2021/12/19 07:27:12;;;;;;;11.98;6.18;;;;;;;6.60;86.40;101435.84;5007943;28;20408;-76
2021/12/19 07:29:37;;;;;;;10.65;6.57;;;;;;;6.55;87.51;101421.75;5005292;28;20080;-77
2021/12/19 07:32:03;;;;;;;11.13;6.20;;;;;;;6.55;87.61;101429.63;5009287;28;20412;-77
2021/12/19 07:34:32;;;;;;;10.60;6.60;;;;;;;6.56;87.72;101429.63;5002599;28;20042;-76
2021/12/19 07:36:58;;;;;;;11.07;6.13;;;;;;;6.58;87.44;101422.69;4987233;28;20034;-77
2021/12/19 07:39:40;;;;;;;10.60;5.85;;;;;;;6.52;88.39;101424.28;5004953;28;20033;-77
2021/12/19 07:42:08;;;;;;;13.10;6.35;;;;;;;6.52;88.09;101422.56;5003665;28;20030;-76
2021/12/19 07:44:34;;;;;;;14.98;6.68;;;;;;;6.52;88.45;101433.06;5007867;28;20034;-77
2021/12/19 07:46:59;;;;;;;10.10;5.93;;;;;;;6.55;88.37;101422.63;5008115;28;20064;-77
2021/12/19 07:49:25;;;;;;;9.82;5.68;;;;;;;6.52;88.63;101424.28;5003686;28;20034;-77
2021/12/19 07:51:51;;;;;;;12.65;6.15;;;;;;;6.56;88.73;101413.91;5011233;28;20041;-77
2021/12/19 07:54:16;;;;;;;11.88;6.10;;;;;;;6.55;88.90;101416.50;5010196;28;20459;-76
2021/12/19 07:56:41;;;;;;;11.25;6.30;;;;;;;6.51;88.61;101415.53;5003164;28;20038;-77
2021/12/19 07:59:07;;;;;;;8.70;6.05;;;;;;;6.55;88.82;101417.38;5002957;28;20121;-77
2021/12/19 08:01:33;;;;;;;13.07;6.07;;;;;;;6.62;88.89;101413.16;5009932;28;20141;-77
2021/12/19 08:03:58;;;;;;;11.77;6.50;;;;;;;6.57;88.74;101405.16;4991554;28;20409;-77
2021/12/19 08:06:24;;;;;;;12.98;6.03;;;;;;;6.66;87.77;101408.91;5008161;28;20052;-77
2021/12/19 08:08:53;;;;;;;11.65;7.28;;;;;;;6.64;88.14;101406.22;5006500;28;20037;-77
2021/12/19 08:14:04;;;;;;;16.98;6.07;;;;;;;6.69;88.57;101411.59;5006160;28;20408;-77
2021/12/19 08:16:29;;;;;;;11.63;5.78;;;;;;;6.65;88.71;101401.84;5017306;28;20116;-77
2021/12/19 08:18:55;;;;;;;9.52;5.55;;;;;;;6.61;88.54;101411.41;5012274;28;20119;-77
2021/12/19 08:21:20;;;;;;;13.20;6.13;;;;;;;6.60;88.89;101399.13;5008483;28;20488;-77
2021/12/19 08:23:47;;;;;;;15.32;6.72;;;;;;;6.58;88.93;101387.72;5010960;28;20029;-77
2021/12/19 08:26:12;;;;;;;12.40;5.57;;;;;;;6.56;89.44;101376.31;5008164;28;20085;-77
2021/12/19 08:28:38;;;;;;;15.57;6.00;;;;;;;6.59;89.18;101376.38;5006343;28;20069;-77
2021/12/19 08:31:04;;;;;;;8.52;5.88;;;;;;;6.65;89.31;101381.75;4983743;28;20039;-77
2021/12/19 08:33:29;;;;;;;10.48;5.32;;;;;;;6.60;89.67;101367.63;5003977;28;20061;-77
2021/12/19 08:35:55;;;;;;;12.52;5.18;;;;;;;6.67;89.20;101369.56;5006802;28;20042;-77
2021/12/19 08:38:20;;;;;;;9.70;5.50;;;;;;;6.67;89.01;101364.31;5003570;28;20077;-77
2021/12/19 08:40:48;;;;;;;13.73;6.07;;;;;;;6.71;89.01;101355.69;5006927;28;20061;-77
2021/12/19 08:43:13;;;;;;;13.48;5.32;;;;;;;6.72;88.50;101357.44;5004202;28;20460;-77
2021/12/19 08:45:39;;;;;;;12.45;5.85;;;;;;;6.75;88.58;101357.50;4991064;28;20121;-77
2021/12/19 08:48:05;;;;;;;12.07;5.07;;;;;;;6.77;87.88;101344.44;4996746;28;20492;-77
2021/12/19 08:50:30;;;;;;;9.20;4.07;;;;;;;6.82;87.22;101347.16;5004650;28;20034;-77
2021/12/19 08:52:56;;;;;;;10.80;4.43;;;;;;;6.87;87.02;101343.78;5004784;28;20089;-77
2021/12/19 08:55:21;;;;;;;11.23;5.22;;;;;;;6.87;86.99;101371.78;5005348;28;20057;-77
2021/12/19 08:57:47;;;;;;;6.63;4.03;;;;;;;6.88;86.49;101342.03;5004569;28;20481;-77
2021/12/19 09:00:14;;;;;;;11.48;4.75;;;;;;;6.94;86.85;101337.84;5006388;28;20040;-77
2021/12/19 09:02:42;;;;;;;7.93;4.10;;;;;;;6.98;86.70;101339.66;4985836;28;20044;-77
2021/12/19 09:05:08;;;;;;;11.95;3.95;;;;;;;7.00;86.78;101334.44;4989097;28;20096;-77
2021/12/19 09:07:33;;;;;;;8.63;4.18;;;;;;;6.93;86.31;101351.78;5006704;28;20049;-77
2021/12/19 09:09:59;;;;;;;11.25;4.93;;;;;;;6.90;86.59;101341.22;5005493;28;20061;-77
2021/12/19 09:12:25;;;;;;;9.38;4.60;;;;;;;6.96;86.28;101332.59;5011225;28;20042;-77
2021/12/19 09:14:50;;;;;;;8.75;4.90;;;;;;;6.92;86.56;101322.91;5011398;28;20480;-77
2021/12/19 09:17:16;;;;;;;13.23;5.65;;;;;;;6.91;86.47;101314.13;5010585;28;20053;-77
2021/12/19 09:19:41;;;;;;;12.32;5.80;;;;;;;6.95;86.78;101323.84;5012166;28;20041;-77
2021/12/19 09:22:06;;;;;;;10.43;5.30;;;;;;;6.94;87.09;101336.91;5013096;28;20033;-77
2021/12/19 09:24:32;;;;;;;9.10;5.13;;;;;;;6.94;86.99;101334.28;5011211;28;20045;-77
2021/12/19 09:26:57;;;;;;;9.38;5.22;;;;;;;7.00;86.55;101319.56;5010365;28;20033;-77
2021/12/19 09:29:26;;;;;;;11.27;4.28;;;;;;;6.94;86.40;101305.44;5005986;28;20124;-77
2021/12/19 09:31:51;;;;;;;10.40;4.45;;;;;;;6.97;86.27;101322.16;5004135;28;20038;-77
2021/12/19 09:34:16;;;;;;;12.68;4.97;;;;;;;6.96;86.44;101309.84;5001518;28;20039;-77
2021/12/19 09:36:42;;;;;;;9.30;4.18;;;;;;;6.93;86.11;101317.66;5005922;28;20030;-76
2021/12/19 09:39:07;;;;;;;11.40;4.60;;;;;;;6.87;86.34;101312.31;5007949;28;20041;-77
2021/12/19 09:41:42;;;;;;;11.80;4.93;;;;;;;6.93;86.75;101298.41;5002770;28;20405;-77
2021/12/19 09:44:09;;;;;;;9.65;4.15;;;;;;;6.94;86.54;101314.22;5002299;28;20038;-77
2021/12/19 09:46:38;;;;;;;11.02;4.28;;;;;;;6.97;85.89;101295.91;4985397;28;20046;-77
2021/12/19 09:49:08;;;;;;;8.75;3.78;;;;;;;6.96;85.73;101306.34;5007136;28;20038;-77
2021/12/19 09:51:34;;;;;;;8.50;3.92;;;;;;;6.96;85.43;101304.59;5011904;28;20045;-77
2021/12/19 09:54:00;;;;;;;9.23;4.00;;;;;;;7.02;85.83;101296.88;5009126;28;20033;-77
2021/12/19 09:56:25;;;;;;;12.25;4.35;;;;;;;7.01;85.58;101294.22;5018975;28;20038;-77
2021/12/19 09:58:50;;;;;;;9.10;4.13;;;;;;;6.99;85.44;101293.28;5001876;28;20127;-78
2021/12/19 10:01:17;;;;;;;10.52;3.72;;;;;;;6.97;85.94;101282.78;5016640;28;20462;-78
2021/12/19 10:03:42;;;;;;;6.55;3.42;;;;;;;6.98;85.73;101284.53;5013344;28;20042;-78
2021/12/19 10:06:21;;;;;;;11.00;3.83;;;;;;;6.99;85.41;101273.16;5010310;28;20037;-78
2021/12/19 10:08:52;;;;;;;7.68;3.33;;;;;;;6.99;86.09;101288.03;5013455;28;20568;-78
2021/12/19 10:14:30;;;;;;;7.40;3.60;;;;;;;6.98;85.73;101260.91;5006104;28;20049;-77
2021/12/19 10:17:07;;;;;;;11.75;4.50;;;;;;;7.08;85.58;101274.25;5009455;28;20060;-77
2021/12/19 10:19:43;;;;;;;6.18;3.35;;;;;;;6.97;86.59;101264.41;5007692;28;20049;-77
2021/12/19 10:22:29;;;;;;;7.18;4.00;;;;;;;6.95;86.55;101244.22;4981559;28;20041;-77
2021/12/19 10:24:57;;;;;;;9.13;3.88;;;;;;;6.95;87.30;101246.84;5011987;28;20483;-77
2021/12/19 10:27:42;;;;;;;7.47;3.80;;;;;;;6.90;86.85;101270.38;4999722;28;20022;-77
2021/12/19 10:30:33;;;;;;;10.95;4.97;;;;;;;6.90;86.50;101233.63;5013412;28;20068;-78
2021/12/19 10:33:06;;;;;;;8.00;3.97;;;;;;;6.91;87.78;101213.53;5014400;28;20045;-78
2021/12/19 10:35:39;;;;;;;7.85;3.58;;;;;;;6.94;86.60;101227.59;5013133;28;20046;-78
2021/12/19 10:38:11;;;;;;;8.82;4.18;;;;;;;6.97;86.24;101232.91;5017352;28;20041;-77
2021/12/19 10:40:37;;;;;;;8.40;3.90;;;;;;;6.97;86.46;101229.41;5022618;28;20334;-77
2021/12/19 10:43:04;;;;;;;9.68;4.32;;;;;;;6.97;86.55;101232.91;5020807;28;20040;-78
2021/12/19 10:45:32;;;;;;;11.77;4.32;;;;;;;6.90;87.21;101245.88;5003869;28;20026;-78
2021/12/19 10:48:18;;;;;;;11.63;4.10;;;;;;;6.89;86.83;101228.34;5007003;28;20412;-77
2021/12/19 10:50:56;;;;;;;9.05;4.60;;;;;;;6.86;86.44;101210.78;5004314;28;20124;-76
2021/12/19 10:53:29;;;;;;;14.65;5.15;;;;;;;6.87;85.43;101225.72;5000452;28;20057;-76
2021/12/19 10:55:56;;;;;;;8.65;3.38;;;;;;;6.96;85.54;101204.88;5001396;28;20030;-77
2021/12/19 10:58:25;;;;;;;8.32;4.18;;;;;;;6.97;86.34;101214.53;5000133;28;20488;-77
2021/12/19 11:00:57;;;;;;;8.13;3.75;;;;;;;6.96;86.02;101189.13;4999619;28;20053;-78
2021/12/19 11:03:41;;;;;;;8.88;4.32;;;;;;;6.98;85.20;101203.19;4999133;28;20045;-77
2021/12/19 11:06:25;;;;;;;9.85;4.13;;;;;;;6.98;85.67;101195.31;5002361;28;20034;-78
2021/12/19 11:08:52;;;;;;;9.32;3.78;;;;;;;7.00;85.63;101195.34;5005507;28;20030;-78
2021/12/19 11:11:41;;;;;;;7.93;3.40;;;;;;;7.00;84.34;101185.72;4999674;28;20041;-76
2021/12/19 11:14:12;;;;;;;6.53;2.80;;;;;;;7.06;83.35;101194.56;5007133;28;20038;-77
2021/12/19 11:16:38;;;;;;;9.27;3.22;;;;;;;7.19;82.09;101202.69;4999279;28;20184;-78
2021/12/19 11:19:04;;;;;;;7.03;3.25;;;;;;;7.33;81.15;101192.44;5000689;28;20504;-77
2021/12/19 11:21:35;;;;;;;10.55;2.53;;;;;;;7.33;81.28;101186.31;5013890;28;20033;-76
2021/12/19 11:24:06;;;;;;;8.30;2.95;;;;;;;7.34;81.40;101181.09;5004776;28;20057;-77
2021/12/19 11:26:33;;;;;;;7.53;3.03;;;;;;;7.27;82.93;101163.44;4999922;28;20152;-77
2021/12/19 11:28:59;;;;;;;6.95;2.95;;;;;;;7.15;83.70;101182.50;4999883;28;20043;-77
2021/12/19 11:31:31;;;;;;;7.35;3.08;;;;;;;7.09;84.63;101166.63;5007670;28;20042;-78
2021/12/19 11:34:16;;;;;;;10.45;3.97;;;;;;;7.08;85.33;101164.00;4989183;28;20038;-77
2021/12/19 11:36:46;;;;;;;11.18;3.10;;;;;;;7.06;85.46;101163.06;5001351;28;20452;-78
2021/12/19 11:39:14;;;;;;;9.27;3.70;;;;;;;7.08;84.85;101177.13;4998183;28;20050;-78
2021/12/19 11:42:00;;;;;;;6.88;3.13;;;;;;;7.08;84.14;101161.38;5002151;28;20471;-77
2021/12/19 11:44:49;;;;;;;8.38;3.03;;;;;;;7.11;84.21;101156.16;5004654;28;20168;-77
2021/12/19 11:47:48;;;;;;;9.55;2.83;;;;;;;7.12;83.45;101171.06;5008266;28;20038;-77
2021/12/19 11:50:26;;;;;;;6.45;2.38;;;;;;;7.16;83.04;101165.00;5010083;28;20042;-77
2021/12/19 11:53:08;;;;;;;6.55;1.98;;;;;;;7.22;82.74;101150.25;4974495;28;20038;-77
2021/12/19 11:55:37;;;;;;;5.53;1.90;;;;;;;7.26;82.21;101140.69;5006490;28;20038;-78
2021/12/19 11:58:08;;;;;;;7.03;1.40;;;;;;;7.24;82.66;101147.66;5007886;28;20092;-79
2021/12/19 12:00:35;;;;;;;4.30;1.40;;;;;;;7.24;82.82;101147.66;5005047;28;20121;-78
2021/12/19 12:03:12;;;;;;;3.15;0.90;;;;;;;7.15;82.24;101165.84;5009437;28;20121;-78
2021/12/19 12:05:38;;;;;;;3.53;1.38;;;;;;;7.18;82.40;101126.56;5006799;28;20042;-78
2021/12/19 12:08:04;;;;;;;2.75;0.75;;;;;;;7.12;82.74;101147.44;5005887;28;20084;-77
2021/12/19 12:10:49;;;;;;;1.60;0.70;;;;;;;7.00;83.52;101137.59;5005757;28;20037;-77
2021/12/19 12:13:26;;;;;;;2.95;0.65;;;;;;;6.98;83.91;101139.31;5004217;28;20420;-77
2021/12/19 12:15:54;;;;;;;1.70;0.60;;;;;;;6.95;84.15;101124.41;5004034;28;20039;-77
2021/12/19 12:18:30;;;;;;;2.92;1.05;;;;;;;6.96;84.64;101136.66;5006726;28;20055;-77
2021/12/19 12:20:56;;;;;;;3.08;0.80;;;;;;;7.00;85.59;101141.09;4988075;28;20477;-76
2021/12/19 12:23:27;;;;;;;2.67;1.00;;;;;;;6.99;86.35;101125.31;5006247;28;20026;-77